createdAt,value
2018-12-13T00:00:06.219Z,2.42
2018-12-13T00:02:34.376Z,2.40
2018-12-13T00:05:02.739Z,2.30
2018-12-13T00:07:30.635Z,2.20
2018-12-13T00:09:58.438Z,2.10
2018-12-13T00:12:26.381Z,2.10
2018-12-13T00:14:54.685Z,2.10
2018-12-13T00:17:23.075Z,1.90
2018-12-13T00:19:50.859Z,2.00
2018-12-13T00:22:19.478Z,1.90
2018-12-13T00:24:48.095Z,1.90
2018-12-13T00:27:16.123Z,1.82
2018-12-13T00:29:44.007Z,1.72
2018-12-13T00:32:11.550Z,1.70
2018-12-13T00:34:39.186Z,1.60
2018-12-13T00:37:07.099Z,1.80
2018-12-13T00:39:35.179Z,1.75
2018-12-13T00:42:03.527Z,2.08
2018-12-13T00:44:31.621Z,1.90
2018-12-13T00:46:59.503Z,1.90
2018-12-13T00:49:27.161Z,1.70
2018-12-13T00:51:54.998Z,1.70
2018-12-13T00:54:23.704Z,1.60
2018-12-13T00:56:51.759Z,1.80
2018-12-13T00:59:19.567Z,1.70
2018-12-13T01:01:47.712Z,1.42
2018-12-13T01:04:15.927Z,1.60
2018-12-13T01:06:46.128Z,1.40
2018-12-13T01:09:14.374Z,1.70
2018-12-13T01:11:42.342Z,1.30
2018-12-13T01:14:10.118Z,1.50
2018-12-13T01:16:37.572Z,1.50
2018-12-13T01:19:05.541Z,1.37
2018-12-13T01:21:33.950Z,1.32
2018-12-13T01:24:01.655Z,1.30
2018-12-13T01:26:29.883Z,1.27
2018-12-13T01:28:57.841Z,1.10
2018-12-13T01:31:25.999Z,1.40
2018-12-13T01:33:54.297Z,1.20
2018-12-13T01:36:22.995Z,1.20
2018-12-13T01:38:50.630Z,1.30
2018-12-13T01:41:19.081Z,1.25
2018-12-13T01:43:46.987Z,1.20
2018-12-13T01:46:14.716Z,1.20
2018-12-13T01:48:42.295Z,1.40
2018-12-13T01:51:10.278Z,1.20
2018-12-13T01:53:37.849Z,1.27
2018-12-13T01:56:05.592Z,1.32
2018-12-13T01:58:33.263Z,1.50
2018-12-13T02:01:01.512Z,1.40
2018-12-13T02:03:29.505Z,1.37
2018-12-13T02:05:57.107Z,1.30
2018-12-13T02:08:25.273Z,1.42
2018-12-13T02:10:52.705Z,1.40
2018-12-13T02:13:20.744Z,1.50
2018-12-13T02:15:48.342Z,1.20
2018-12-13T02:18:17.012Z,1.30
2018-12-13T02:20:44.573Z,1.50
2018-12-13T02:23:13.266Z,1.60
2018-12-13T02:25:41.644Z,1.57
2018-12-13T02:28:10.237Z,1.52
2018-12-13T02:30:38.557Z,1.40
2018-12-13T02:33:06.588Z,1.40
2018-12-13T02:35:33.989Z,1.40
2018-12-13T02:38:01.610Z,1.40
2018-12-13T02:40:29.501Z,1.50
2018-12-13T02:42:56.953Z,1.30
2018-12-13T02:45:24.927Z,1.40
2018-12-13T02:47:52.495Z,1.20
2018-12-13T02:50:20.522Z,1.30
2018-12-13T02:52:48.603Z,1.10
2018-12-13T02:55:16.494Z,1.20
2018-12-13T02:57:45.735Z,1.10
2018-12-13T03:00:13.860Z,1.10
2018-12-13T03:02:42.228Z,1.05
2018-12-13T03:05:09.977Z,1.10
2018-12-13T03:07:38.064Z,1.20
2018-12-13T03:10:06.337Z,1.45
2018-12-13T03:12:34.168Z,1.40
2018-12-13T03:15:01.662Z,1.20
2018-12-13T03:17:29.687Z,1.15
2018-12-13T03:19:57.189Z,1.17
2018-12-13T03:22:24.743Z,1.20
2018-12-13T03:24:52.465Z,1.20
2018-12-13T03:27:20.141Z,1.40
2018-12-13T03:29:47.875Z,1.20
2018-12-13T03:32:15.799Z,1.30
2018-12-13T03:34:43.378Z,1.20
2018-12-13T03:37:11.076Z,1.20
2018-12-13T03:39:40.030Z,1.10
2018-12-13T03:42:07.792Z,1.20
2018-12-13T03:44:35.758Z,1.20
2018-12-13T03:47:03.739Z,1.10
2018-12-13T03:49:31.490Z,1.10
2018-12-13T03:51:59.429Z,1.10
2018-12-13T03:54:27.304Z,1.17
2018-12-13T03:56:55.467Z,1.30
2018-12-13T03:59:23.639Z,1.22
2018-12-13T04:01:51.547Z,1.12
2018-12-13T04:04:19.210Z,1.20
2018-12-13T04:06:46.834Z,1.10
2018-12-13T04:09:14.754Z,1.00
2018-12-13T04:11:42.501Z,1.00
2018-12-13T04:14:10.574Z,1.10
2018-12-13T04:16:38.306Z,1.10
2018-12-13T04:19:05.791Z,1.07
2018-12-13T04:21:33.966Z,1.25
2018-12-13T04:24:02.864Z,1.20
2018-12-13T04:26:30.730Z,1.10
2018-12-13T04:28:58.397Z,1.20
2018-12-13T04:31:26.050Z,1.40
2018-12-13T04:33:53.789Z,1.23
2018-12-13T04:36:21.278Z,1.10
2018-12-13T04:38:49.149Z,1.50
2018-12-13T04:41:17.066Z,1.10
2018-12-13T04:43:44.650Z,1.10
2018-12-13T04:46:12.447Z,1.20
2018-12-13T04:48:40.523Z,1.60
2018-12-13T04:51:08.270Z,1.50
2018-12-13T04:53:35.814Z,1.20
2018-12-13T04:56:03.386Z,1.22
2018-12-13T04:58:31.579Z,1.35
2018-12-13T05:00:59.454Z,1.20
2018-12-13T05:03:26.890Z,1.10
2018-12-13T05:05:54.366Z,1.10
2018-12-13T05:08:22.010Z,1.10
2018-12-13T05:10:55.123Z,1.20
2018-12-13T05:13:23.073Z,1.20
2018-12-13T05:15:50.769Z,1.10
2018-12-13T05:18:18.294Z,1.10
2018-12-13T05:20:45.930Z,1.00
2018-12-13T05:23:14.144Z,1.35
2018-12-13T05:25:43.139Z,1.37
2018-12-13T05:28:10.749Z,1.20
2018-12-13T05:30:38.657Z,1.17
2018-12-13T05:33:06.561Z,1.10
2018-12-13T05:35:34.498Z,1.00
2018-12-13T05:38:02.474Z,1.10
2018-12-13T05:40:30.445Z,1.10
2018-12-13T05:42:58.893Z,1.20
2018-12-13T05:45:27.287Z,1.00
2018-12-13T05:49:13.518Z,1.30
2018-12-13T05:51:42.562Z,1.20
2018-12-13T05:54:10.225Z,1.20
2018-12-13T05:56:38.118Z,1.20
2018-12-13T05:59:06.995Z,1.10
2018-12-13T06:01:34.940Z,1.10
2018-12-13T06:04:02.358Z,1.12
2018-12-13T06:06:29.791Z,1.07
2018-12-13T06:08:57.614Z,2.10
2018-12-13T06:11:25.776Z,3.93
2018-12-13T06:13:53.410Z,1.90
2018-12-13T06:16:20.822Z,1.37
2018-12-13T06:18:48.441Z,1.22
2018-12-13T06:21:15.947Z,1.50
2018-12-13T06:23:43.346Z,1.30
2018-12-13T06:26:10.751Z,1.20
2018-12-13T06:28:39.251Z,1.30
2018-12-13T06:31:07.243Z,1.50
2018-12-13T06:33:35.282Z,1.30
2018-12-13T06:36:02.981Z,1.42
2018-12-13T06:38:30.841Z,1.40
2018-12-13T06:40:59.022Z,1.50
2018-12-13T06:43:26.898Z,2.00
2018-12-13T06:45:54.666Z,1.80
2018-12-13T06:48:22.350Z,2.10
2018-12-13T06:50:49.925Z,1.50
2018-12-13T06:53:17.314Z,1.60
2018-12-13T06:55:45.001Z,1.70
2018-12-13T06:58:13.279Z,1.50
2018-12-13T07:00:41.247Z,1.50
2018-12-13T07:03:09.098Z,1.80
2018-12-13T07:05:36.785Z,1.40
2018-12-13T07:08:07.810Z,1.60
2018-12-13T07:10:35.561Z,1.80
2018-12-13T07:13:03.451Z,1.70
2018-12-13T07:15:30.972Z,1.90
2018-12-13T07:17:58.774Z,1.80
2018-12-13T07:20:26.315Z,1.72
2018-12-13T07:22:54.293Z,1.70
2018-12-13T07:25:21.855Z,1.70
2018-12-13T07:27:49.730Z,2.30
2018-12-13T07:30:17.675Z,1.98
2018-12-13T07:32:45.567Z,1.80
2018-12-13T07:35:13.329Z,2.00
2018-12-13T07:37:41.308Z,2.17
2018-12-13T07:40:08.999Z,2.02
2018-12-13T07:42:36.819Z,2.20
2018-12-13T07:45:04.664Z,2.50
2018-12-13T07:47:33.257Z,2.30
2018-12-13T07:50:01.117Z,2.10
2018-12-13T07:52:29.930Z,2.40
2018-12-13T07:54:57.614Z,2.60
2018-12-13T07:57:25.025Z,2.30
2018-12-13T07:59:53.274Z,2.40
2018-12-13T08:02:21.680Z,2.80
2018-12-13T08:04:49.273Z,2.30
2018-12-13T08:07:16.809Z,2.17
2018-12-13T08:09:44.357Z,2.80
2018-12-13T08:12:11.851Z,2.52
2018-12-13T08:14:39.284Z,2.30
2018-12-13T08:17:06.897Z,2.20
2018-12-13T08:19:35.494Z,2.40
2018-12-13T08:22:03.903Z,12.33
2018-12-13T08:24:31.702Z,3.08
2018-12-13T08:26:59.496Z,2.90
2018-12-13T08:29:27.200Z,2.80
2018-12-13T08:31:54.733Z,2.80
2018-12-13T08:34:22.547Z,2.70
2018-12-13T08:36:50.107Z,2.72
2018-12-13T08:39:18.262Z,2.70
2018-12-13T08:41:45.632Z,2.58
2018-12-13T08:44:13.213Z,3.08
2018-12-13T08:46:40.534Z,2.75
2018-12-13T08:49:08.523Z,2.70
2018-12-13T08:51:35.917Z,2.72
2018-12-13T08:54:03.700Z,2.58
2018-12-13T08:56:31.031Z,2.80
2018-12-13T08:58:58.638Z,2.75
2018-12-13T09:01:26.214Z,2.62
2018-12-13T09:03:54.511Z,2.45
2018-12-13T09:06:22.771Z,20.67
2018-12-13T09:08:50.624Z,16.48
2018-12-13T09:11:17.985Z,12.95
2018-12-13T09:13:45.556Z,16.82
2018-12-13T09:16:13.532Z,10.60
2018-12-13T09:18:41.606Z,13.93
2018-12-13T09:21:09.383Z,11.73
2018-12-13T09:23:37.132Z,14.03
2018-12-13T09:26:04.699Z,4.70
2018-12-13T09:28:32.164Z,4.08
2018-12-13T09:30:59.583Z,4.03
2018-12-13T09:33:27.262Z,4.55
2018-12-13T09:35:55.748Z,4.35
2018-12-13T09:38:23.139Z,2.80
2018-12-13T09:40:50.886Z,4.70
2018-12-13T09:43:18.235Z,3.90
2018-12-13T09:45:46.270Z,4.05
2018-12-13T09:48:13.551Z,4.00
2018-12-13T09:50:40.894Z,4.35
2018-12-13T09:53:08.983Z,2.58
2018-12-13T09:55:36.534Z,3.15
2018-12-13T09:58:03.913Z,2.58
2018-12-13T10:00:31.257Z,3.50
2018-12-13T10:02:58.912Z,3.25
2018-12-13T10:05:26.207Z,2.70
2018-12-13T10:07:53.527Z,2.40
2018-12-13T10:10:21.139Z,3.00
2018-12-13T10:12:49.246Z,3.50
2018-12-13T10:15:17.587Z,4.25
2018-12-13T10:17:45.240Z,2.50
2018-12-13T10:20:12.606Z,3.12
2018-12-13T10:22:39.955Z,2.80
2018-12-13T10:25:07.308Z,2.60
2018-12-13T10:27:34.666Z,2.50
2018-12-13T10:30:02.276Z,3.17
2018-12-13T10:32:29.625Z,3.12
2018-12-13T10:34:57.028Z,2.30
2018-12-13T10:37:24.311Z,3.47
2018-12-13T10:39:52.569Z,2.90
2018-12-13T10:42:21.516Z,2.77
2018-12-13T10:44:49.143Z,2.40
2018-12-13T10:47:17.284Z,2.37
2018-12-13T10:49:45.116Z,2.70
2018-12-13T10:52:12.550Z,2.50
2018-12-13T10:54:40.233Z,2.85
2018-12-13T10:57:07.916Z,4.15
2018-12-13T10:59:35.759Z,3.58
2018-12-13T11:02:05.822Z,4.17
2018-12-13T11:04:33.373Z,4.00
2018-12-13T11:07:00.812Z,2.80
2018-12-13T11:09:28.921Z,2.50
2018-12-13T11:11:56.631Z,2.70
2018-12-13T11:14:24.217Z,2.40
2018-12-13T11:16:52.070Z,2.20
2018-12-13T11:19:20.226Z,2.25
2018-12-13T11:21:48.528Z,2.50
2018-12-13T11:24:16.738Z,2.30
2018-12-13T11:26:45.338Z,2.60
2018-12-13T11:29:18.689Z,2.80
2018-12-13T11:31:46.111Z,3.58
2018-12-13T11:34:14.023Z,4.33
2018-12-13T11:36:42.080Z,4.47
2018-12-13T11:39:09.954Z,2.50
2018-12-13T11:41:37.639Z,5.55
2018-12-13T11:44:05.583Z,5.23
2018-12-13T11:46:33.199Z,3.63
2018-12-13T11:49:01.010Z,3.80
2018-12-13T11:51:28.767Z,3.20
2018-12-13T11:53:56.764Z,3.15
2018-12-13T11:56:24.732Z,3.40
2018-12-13T11:58:53.048Z,3.50
2018-12-13T12:01:20.630Z,2.90
2018-12-13T12:03:48.322Z,3.10
2018-12-13T12:06:15.727Z,3.37
2018-12-13T12:08:44.297Z,3.30
2018-12-13T12:11:12.113Z,3.50
2018-12-13T12:13:39.788Z,3.55
2018-12-13T12:16:07.334Z,3.37
2018-12-13T12:18:34.802Z,3.40
2018-12-13T12:21:02.289Z,5.47
2018-12-13T12:23:31.257Z,3.95
2018-12-13T12:25:58.657Z,4.00
2018-12-13T12:28:26.431Z,3.20
2018-12-13T12:30:55.503Z,3.25
2018-12-13T12:33:23.046Z,3.15
2018-12-13T12:35:50.953Z,5.62
2018-12-13T12:38:18.488Z,5.00
2018-12-13T12:40:46.846Z,3.72
2018-12-13T12:43:14.701Z,3.60
2018-12-13T12:45:43.278Z,3.60
2018-12-13T12:48:10.739Z,3.70
2018-12-13T12:50:38.314Z,3.90
2018-12-13T12:53:06.742Z,4.03
2018-12-13T12:55:34.622Z,3.70
2018-12-13T12:58:02.606Z,3.83
2018-12-13T13:00:30.999Z,3.80
2018-12-13T13:02:59.251Z,3.67
2018-12-13T13:05:27.475Z,4.10
2018-12-13T13:07:55.028Z,4.08
2018-12-13T13:10:22.659Z,4.60
2018-12-13T13:12:50.325Z,4.40
2018-12-13T13:15:17.806Z,4.50
2018-12-13T13:17:45.397Z,4.47
2018-12-13T13:20:13.219Z,4.85
2018-12-13T13:22:40.874Z,4.80
2018-12-13T13:25:08.718Z,4.62
2018-12-13T13:27:36.214Z,4.30
2018-12-13T13:30:04.490Z,4.40
2018-12-13T13:32:32.150Z,5.12
2018-12-13T13:35:00.120Z,4.60
2018-12-13T13:37:28.600Z,4.70
2018-12-13T13:39:56.364Z,4.70
2018-12-13T13:42:24.432Z,4.90
2018-12-13T13:44:57.105Z,6.20
2018-12-13T13:47:25.382Z,5.30
2018-12-13T13:49:53.050Z,5.08
2018-12-13T13:52:20.689Z,5.03
2018-12-13T13:54:49.060Z,4.85
2018-12-13T13:57:16.507Z,4.80
2018-12-13T13:59:44.159Z,5.17
2018-12-13T14:02:11.670Z,5.00
2018-12-13T14:04:39.400Z,4.83
2018-12-13T14:07:07.406Z,4.70
2018-12-13T14:09:38.127Z,4.70
2018-12-13T14:12:06.076Z,4.80
2018-12-13T14:14:34.189Z,4.90
2018-12-13T14:17:02.220Z,4.90
2018-12-13T14:19:31.446Z,4.97
2018-12-13T14:21:59.923Z,4.78
2018-12-13T14:24:28.076Z,5.03
2018-12-13T14:26:56.671Z,5.03
2018-12-13T14:29:25.906Z,5.10
2018-12-13T14:31:54.147Z,5.20
2018-12-13T14:34:21.806Z,5.20
2018-12-13T14:36:49.604Z,6.22
2018-12-13T14:39:17.482Z,5.42
2018-12-13T14:41:45.206Z,5.20
2018-12-13T14:44:12.624Z,5.10
2018-12-13T14:46:41.020Z,5.87
2018-12-13T14:49:08.470Z,5.50
2018-12-13T14:51:36.171Z,6.03
2018-12-13T14:54:04.492Z,5.60
2018-12-13T14:56:32.172Z,6.10
2018-12-13T14:59:00.709Z,5.80
2018-12-13T15:01:28.270Z,5.35
2018-12-13T15:03:56.490Z,5.50
2018-12-13T15:06:24.519Z,5.92
2018-12-13T15:08:52.454Z,5.50
2018-12-13T15:11:21.076Z,5.60
2018-12-13T15:13:48.726Z,5.67
2018-12-13T15:16:17.290Z,5.60
2018-12-13T15:18:44.971Z,5.50
2018-12-13T15:21:12.573Z,5.25
2018-12-13T15:23:40.478Z,5.50
2018-12-13T15:26:08.270Z,6.00
2018-12-13T15:28:36.207Z,5.80
2018-12-13T15:31:04.608Z,5.40
2018-12-13T15:33:36.907Z,5.97
2018-12-13T15:36:04.497Z,5.92
2018-12-13T15:38:32.096Z,5.87
2018-12-13T15:40:59.373Z,6.10
2018-12-13T15:43:26.753Z,6.25
2018-12-13T15:45:54.427Z,7.45
2018-12-13T15:48:22.787Z,6.90
2018-12-13T15:50:50.173Z,6.47
2018-12-13T15:53:17.549Z,6.50
2018-12-13T15:55:45.127Z,6.25
2018-12-13T15:58:12.475Z,5.70
2018-12-13T16:00:40.131Z,6.00
2018-12-13T16:03:07.732Z,6.00
2018-12-13T16:05:35.061Z,6.17
2018-12-13T16:08:02.377Z,6.28
2018-12-13T16:10:30.322Z,6.00
2018-12-13T16:12:57.637Z,6.30
2018-12-13T16:15:25.214Z,6.20
2018-12-13T16:17:53.177Z,6.60
2018-12-13T16:20:20.493Z,6.20
2018-12-13T16:22:48.187Z,6.40
2018-12-13T16:25:16.060Z,5.80
2018-12-13T16:27:43.725Z,6.12
2018-12-13T16:30:11.074Z,5.30
2018-12-13T16:32:39.114Z,5.97
2018-12-13T16:35:06.461Z,5.40
2018-12-13T16:37:34.361Z,5.00
2018-12-13T16:40:01.819Z,5.05
2018-12-13T16:42:29.195Z,6.15
2018-12-13T16:44:56.876Z,7.30
2018-12-13T16:47:24.227Z,6.65
2018-12-13T16:49:51.855Z,5.60
2018-12-13T16:52:19.391Z,5.25
2018-12-13T16:54:46.742Z,5.55
2018-12-13T16:57:14.058Z,5.03
2018-12-13T16:59:41.431Z,5.12
2018-12-13T17:02:09.351Z,5.00
2018-12-13T17:04:36.728Z,5.25
2018-12-13T17:07:04.265Z,5.05
2018-12-13T17:09:31.823Z,5.03
2018-12-13T17:11:59.156Z,5.25
2018-12-13T17:14:26.519Z,5.10
2018-12-13T17:16:53.891Z,4.70
2018-12-13T17:19:21.765Z,4.80
2018-12-13T17:21:50.342Z,4.90
2018-12-13T17:24:18.012Z,5.00
2018-12-13T17:26:45.392Z,4.50
2018-12-13T17:29:12.732Z,5.10
2018-12-13T17:31:40.003Z,4.95
2018-12-13T17:34:07.656Z,4.50
2018-12-13T17:36:34.960Z,4.45
2018-12-13T17:39:02.651Z,5.80
2018-12-13T17:41:30.417Z,4.78
2018-12-13T17:43:58.063Z,5.70
2018-12-13T17:46:25.423Z,4.40
2018-12-13T17:48:53.239Z,3.95
2018-12-13T17:51:20.862Z,4.10
2018-12-13T17:53:48.310Z,3.85
2018-12-13T17:56:16.214Z,4.28
2018-12-13T17:58:43.952Z,3.67
2018-12-13T18:01:11.258Z,3.60
2018-12-13T18:03:38.652Z,3.77
2018-12-13T18:06:06.226Z,3.83
2018-12-13T18:08:33.884Z,3.52
2018-12-13T18:11:01.925Z,3.77
2018-12-13T18:13:29.280Z,3.67
2018-12-13T18:15:56.985Z,3.72
2018-12-13T18:18:24.684Z,3.60
2018-12-13T18:20:52.066Z,3.60
2018-12-13T18:23:19.655Z,3.87
2018-12-13T18:25:47.319Z,3.70
2018-12-13T18:28:14.672Z,3.50
2018-12-13T18:30:42.643Z,3.83
2018-12-13T18:33:09.969Z,3.60
2018-12-13T18:35:37.655Z,3.30
2018-12-13T18:38:05.027Z,3.30
2018-12-13T18:40:35.604Z,3.50
2018-12-13T18:43:02.476Z,3.20
2018-12-13T18:45:34.151Z,3.35
2018-12-13T18:48:01.962Z,3.40
2018-12-13T18:50:29.285Z,3.70
2018-12-13T18:52:57.225Z,3.30
2018-12-13T18:55:24.593Z,3.40
2018-12-13T18:57:51.920Z,3.25
2018-12-13T19:00:19.637Z,3.60
2018-12-13T19:02:47.580Z,3.30
2018-12-13T19:05:15.459Z,3.83
2018-12-13T19:07:42.999Z,3.50
2018-12-13T19:10:10.585Z,3.40
2018-12-13T19:12:38.015Z,2.92
2018-12-13T19:15:06.119Z,3.20
2018-12-13T19:17:33.915Z,3.70
2018-12-13T19:20:01.251Z,3.25
2018-12-13T19:22:29.156Z,2.90
2018-12-13T19:24:57.028Z,2.80
2018-12-13T19:27:25.176Z,2.50
2018-12-13T19:29:52.479Z,2.60
2018-12-13T19:32:19.950Z,2.70
2018-12-13T19:34:47.312Z,2.60
2018-12-13T19:37:14.713Z,2.50
2018-12-13T19:39:42.313Z,3.00
2018-12-13T19:42:09.708Z,3.15
2018-12-13T19:44:37.291Z,3.03
2018-12-13T19:47:05.139Z,3.60
2018-12-13T19:49:32.456Z,3.00
2018-12-13T19:51:59.799Z,3.30
2018-12-13T19:54:27.764Z,3.60
2018-12-13T19:56:55.425Z,2.90
2018-12-13T19:59:23.021Z,3.15
2018-12-13T20:01:50.864Z,3.30
2018-12-13T20:04:18.241Z,3.45
2018-12-13T20:06:45.883Z,3.60
2018-12-13T20:09:13.541Z,3.20
2018-12-13T20:11:41.212Z,3.20
2018-12-13T20:14:08.845Z,3.10
2018-12-13T20:16:37.014Z,3.00
2018-12-13T20:19:04.981Z,3.15
2018-12-13T20:21:33.147Z,3.00
2018-12-13T20:24:00.805Z,3.00
2018-12-13T20:26:28.239Z,8.03
2018-12-13T20:28:56.348Z,30.68
2018-12-13T20:31:23.908Z,28.02
2018-12-13T20:33:51.305Z,28.70
2018-12-13T20:36:19.746Z,18.55
2018-12-13T20:38:48.228Z,11.95
2018-12-13T20:41:16.301Z,3.90
2018-12-13T20:43:44.167Z,2.80
2018-12-13T20:46:12.034Z,2.65
2018-12-13T20:48:39.700Z,3.20
2018-12-13T20:51:07.040Z,2.70
2018-12-13T20:53:34.818Z,3.08
2018-12-13T20:56:02.727Z,2.92
2018-12-13T20:58:30.492Z,3.00
2018-12-13T21:00:58.672Z,4.65
2018-12-13T21:03:26.033Z,3.30
2018-12-13T21:05:53.387Z,3.20
2018-12-13T21:08:20.748Z,3.10
2018-12-13T21:10:48.348Z,3.00
2018-12-13T21:13:15.676Z,3.20
2018-12-13T21:15:43.369Z,3.20
2018-12-13T21:18:10.717Z,3.00
2018-12-13T21:20:38.089Z,3.20
2018-12-13T21:23:05.960Z,2.80
2018-12-13T21:25:33.862Z,2.90
2018-12-13T21:28:01.249Z,3.30
2018-12-13T21:30:28.735Z,10.77
2018-12-13T21:32:56.229Z,8.75
2018-12-13T21:35:23.535Z,7.73
2018-12-13T21:37:50.933Z,9.90
2018-12-13T21:40:18.693Z,7.33
2018-12-13T21:42:46.767Z,4.85
2018-12-13T21:45:14.432Z,6.35
2018-12-13T21:47:41.821Z,6.20
2018-12-13T21:50:09.197Z,3.10
2018-12-13T21:52:36.844Z,3.10
2018-12-13T21:55:04.562Z,3.20
2018-12-13T21:57:32.178Z,5.62
2018-12-13T22:00:00.675Z,3.50
2018-12-13T22:02:28.579Z,4.15
2018-12-13T22:04:56.754Z,3.52
2018-12-13T22:07:24.384Z,2.98
2018-12-13T22:09:51.979Z,3.20
2018-12-13T22:12:19.297Z,3.00
2018-12-13T22:14:47.180Z,3.40
2018-12-13T22:17:14.841Z,3.40
2018-12-13T22:19:42.474Z,3.12
2018-12-13T22:22:10.617Z,3.30
2018-12-13T22:24:38.269Z,3.60
2018-12-13T22:27:05.578Z,3.50
2018-12-13T22:29:32.916Z,3.62
2018-12-13T22:32:00.826Z,3.90
2018-12-13T22:34:28.522Z,3.50
2018-12-13T22:36:56.467Z,3.80
2018-12-13T22:39:23.774Z,3.40
2018-12-13T22:41:51.372Z,3.27
2018-12-13T22:44:19.087Z,3.00
2018-12-13T22:46:46.508Z,3.33
2018-12-13T22:49:14.372Z,3.80
2018-12-13T22:51:41.715Z,3.40
2018-12-13T22:54:09.690Z,3.70
2018-12-13T22:56:37.356Z,3.72
2018-12-13T22:59:04.981Z,3.80
2018-12-13T23:01:32.788Z,3.70
2018-12-13T23:04:00.145Z,3.70
2018-12-13T23:06:27.656Z,3.80
2018-12-13T23:08:55.466Z,4.20
2018-12-13T23:11:22.820Z,4.40
2018-12-13T23:13:50.176Z,4.35
2018-12-13T23:16:17.520Z,4.30
2018-12-13T23:18:45.609Z,4.30
2018-12-13T23:21:13.429Z,4.00
2018-12-13T23:23:41.130Z,4.60
2018-12-13T23:26:08.865Z,4.30
2018-12-13T23:28:36.175Z,4.80
2018-12-13T23:31:04.115Z,4.53
2018-12-13T23:33:31.784Z,4.50
2018-12-13T23:35:59.324Z,4.30
2018-12-13T23:38:26.827Z,4.40
2018-12-13T23:40:54.243Z,4.10
2018-12-13T23:43:21.643Z,4.53
2018-12-13T23:45:49.142Z,5.10
2018-12-13T23:48:16.464Z,5.93
2018-12-13T23:50:44.390Z,6.30
2018-12-13T23:53:12.259Z,5.80
2018-12-13T23:55:39.978Z,6.33
2018-12-13T23:58:07.363Z,6.30
